createdAt,value
2018-09-18T00:01:01.957Z,61.99
2018-09-18T00:03:31.250Z,61.93
2018-09-18T00:06:00.587Z,62.00
2018-09-18T00:08:29.989Z,62.00
2018-09-18T00:10:59.547Z,62.41
2018-09-18T00:13:28.851Z,62.39
2018-09-18T00:15:58.202Z,61.75
2018-09-18T00:18:28.495Z,62.00
2018-09-18T00:20:57.971Z,61.57
2018-09-18T00:23:27.557Z,61.64
2018-09-18T00:25:56.862Z,62.06
2018-09-18T00:28:26.155Z,62.14
2018-09-18T00:30:55.443Z,61.81
2018-09-18T00:33:24.988Z,61.29
2018-09-18T00:35:54.386Z,61.53
2018-09-18T00:38:23.682Z,60.99
2018-09-18T00:40:52.986Z,61.40
2018-09-18T00:43:22.363Z,60.79
2018-09-18T00:45:51.618Z,61.65
2018-09-18T00:48:21.023Z,61.89
2018-09-18T00:50:50.386Z,61.75
2018-09-18T00:53:19.675Z,61.50
2018-09-18T00:55:49.322Z,61.57
2018-09-18T00:58:18.615Z,60.94
2018-09-18T01:00:48.176Z,61.25
2018-09-18T01:03:17.513Z,60.97
2018-09-18T01:05:46.825Z,60.86
2018-09-18T01:08:16.287Z,60.24
2018-09-18T01:10:45.607Z,60.33
2018-09-18T01:13:15.053Z,60.74
2018-09-18T01:15:44.313Z,60.20
2018-09-18T01:18:13.723Z,60.24
2018-09-18T01:20:43.195Z,60.02
2018-09-18T01:23:12.459Z,60.50
2018-09-18T01:25:41.804Z,60.55
2018-09-18T01:28:11.090Z,60.19
2018-09-18T01:30:40.397Z,60.16
2018-09-18T01:33:09.862Z,60.10
2018-09-18T01:35:39.199Z,60.71
2018-09-18T01:38:08.597Z,60.58
2018-09-18T01:40:38.099Z,60.20
2018-09-18T01:43:07.486Z,60.64
2018-09-18T01:45:36.838Z,60.69
2018-09-18T01:48:06.416Z,61.51
2018-09-18T01:50:35.888Z,61.12
2018-09-18T01:53:05.282Z,60.81
2018-09-18T01:55:34.696Z,59.99
2018-09-18T01:58:04.006Z,60.31
2018-09-18T02:00:33.418Z,60.68
2018-09-18T02:03:03.056Z,60.62
2018-09-18T02:05:33.064Z,60.45
2018-09-18T02:08:02.615Z,60.76
2018-09-18T02:10:32.228Z,60.25
2018-09-18T02:13:02.163Z,60.93
2018-09-18T02:15:31.686Z,60.32
2018-09-18T02:18:01.293Z,60.27
2018-09-18T02:20:31.071Z,61.26
2018-09-18T02:23:00.781Z,61.01
2018-09-18T02:25:30.666Z,60.76
2018-09-18T02:28:00.275Z,60.73
2018-09-18T02:30:30.115Z,60.72
2018-09-18T02:32:59.798Z,60.38
2018-09-18T02:35:29.406Z,60.90
2018-09-18T02:37:59.254Z,60.57
2018-09-18T02:40:28.791Z,60.21
2018-09-18T02:42:58.331Z,60.76
2018-09-18T02:45:28.059Z,60.49
2018-09-18T02:47:57.948Z,60.73
2018-09-18T02:50:27.502Z,60.92
2018-09-18T02:52:57.087Z,60.84
2018-09-18T02:55:26.629Z,61.42
2018-09-18T02:57:56.119Z,61.00
2018-09-18T03:00:25.647Z,60.80
2018-09-18T03:02:55.531Z,61.21
2018-09-18T03:05:25.139Z,61.32
2018-09-18T03:07:54.908Z,60.90
2018-09-18T03:10:25.116Z,60.91
2018-09-18T03:12:54.896Z,60.72
2018-09-18T03:15:24.879Z,61.33
2018-09-18T03:17:54.437Z,61.34
2018-09-18T03:20:24.035Z,60.86
2018-09-18T03:22:53.681Z,60.92
2018-09-18T03:25:23.186Z,60.64
2018-09-18T03:27:52.675Z,59.97
2018-09-18T03:30:22.287Z,60.57
2018-09-18T03:32:52.149Z,61.29
2018-09-18T03:35:21.834Z,61.13
2018-09-18T03:37:51.348Z,60.90
2018-09-18T03:40:20.703Z,61.08
2018-09-18T03:42:50.319Z,61.56
2018-09-18T03:45:20.021Z,60.98
2018-09-18T03:47:49.424Z,60.96
2018-09-18T03:50:18.810Z,60.88
2018-09-18T03:52:48.267Z,61.32
2018-09-18T03:55:17.838Z,60.90
2018-09-18T03:57:47.250Z,62.32
2018-09-18T04:00:17.106Z,62.91
2018-09-18T04:02:46.601Z,62.28
2018-09-18T04:05:15.898Z,61.60
2018-09-18T04:07:45.324Z,61.18
2018-09-18T04:10:14.770Z,61.64
2018-09-18T04:12:44.170Z,61.86
2018-09-18T04:15:13.566Z,61.74
2018-09-18T04:17:43.827Z,61.09
2018-09-18T04:20:13.396Z,61.65
2018-09-18T04:22:42.818Z,61.33
2018-09-18T04:25:12.165Z,61.43
2018-09-18T04:27:41.455Z,61.49
2018-09-18T04:30:10.792Z,61.86
2018-09-18T04:32:40.155Z,61.51
2018-09-18T04:35:09.462Z,61.65
2018-09-18T04:37:38.809Z,62.37
2018-09-18T04:40:09.364Z,61.95
2018-09-18T04:42:38.737Z,62.38
2018-09-18T04:45:08.078Z,62.23
2018-09-18T04:47:37.505Z,62.64
2018-09-18T04:50:06.911Z,62.17
2018-09-18T04:52:36.456Z,61.88
2018-09-18T04:55:06.158Z,61.16
2018-09-18T04:57:35.497Z,61.08
2018-09-18T05:00:05.644Z,61.07
2018-09-18T05:02:35.420Z,60.85
2018-09-18T05:05:05.362Z,60.98
2018-09-18T05:07:34.732Z,61.00
2018-09-18T05:10:04.293Z,61.46
2018-09-18T05:12:33.635Z,61.56
2018-09-18T05:15:03.139Z,60.78
2018-09-18T05:17:33.027Z,61.53
2018-09-18T05:20:02.773Z,60.34
2018-09-18T05:22:32.188Z,60.42
2018-09-18T05:25:01.730Z,59.77
2018-09-18T05:27:30.995Z,60.08
2018-09-18T05:30:00.386Z,59.42
2018-09-18T05:32:29.703Z,58.81
2018-09-18T05:34:59.440Z,59.03
2018-09-18T05:37:28.798Z,59.02
2018-09-18T05:39:58.483Z,58.92
2018-09-18T05:42:27.855Z,58.91
2018-09-18T05:44:57.231Z,58.02
2018-09-18T05:47:26.862Z,57.64
2018-09-18T05:49:56.253Z,57.28
2018-09-18T05:52:25.652Z,55.84
2018-09-18T05:54:55.062Z,56.03
2018-09-18T05:57:24.465Z,55.34
2018-09-18T05:59:54.261Z,55.66
2018-09-18T06:02:23.757Z,56.42
2018-09-18T06:04:53.039Z,55.74
2018-09-18T06:07:22.532Z,54.88
2018-09-18T06:09:52.384Z,54.01
2018-09-18T06:12:21.745Z,53.79
2018-09-18T06:14:51.067Z,53.47
2018-09-18T06:17:20.506Z,52.92
2018-09-18T06:19:49.943Z,51.53
2018-09-18T06:22:19.410Z,50.84
2018-09-18T06:24:48.850Z,48.87
2018-09-18T06:27:18.291Z,48.06
2018-09-18T06:29:47.713Z,46.98
2018-09-18T06:32:17.276Z,43.97
2018-09-18T06:34:46.669Z,44.09
2018-09-18T06:37:16.171Z,42.79
2018-09-18T06:39:45.586Z,39.79
2018-09-18T06:42:14.927Z,38.43
2018-09-18T06:44:44.669Z,37.52
2018-09-18T06:47:14.032Z,36.89
2018-09-18T06:49:43.762Z,36.55
2018-09-18T06:52:13.101Z,35.35
2018-09-18T06:54:42.867Z,34.71
2018-09-18T06:57:12.237Z,34.20
2018-09-18T06:59:41.636Z,33.51
2018-09-18T07:02:11.448Z,33.22
2018-09-18T07:04:40.865Z,32.88
2018-09-18T07:07:10.282Z,34.11
2018-09-18T07:09:39.645Z,34.59
2018-09-18T07:12:09.110Z,33.99
2018-09-18T07:14:38.489Z,34.29
2018-09-18T07:17:08.617Z,32.20
2018-09-18T07:19:38.455Z,30.42
2018-09-18T07:22:07.935Z,30.81
2018-09-18T07:24:37.438Z,32.78
2018-09-18T07:27:06.836Z,32.40
2018-09-18T07:29:36.350Z,32.07
2018-09-18T07:32:05.747Z,29.69
2018-09-18T07:34:35.148Z,31.40
2018-09-18T07:37:04.631Z,29.36
2018-09-18T07:39:34.508Z,29.58
2018-09-18T07:42:04.077Z,29.23
2018-09-18T07:44:33.475Z,27.95
2018-09-18T07:47:02.952Z,27.16
2018-09-18T07:49:32.337Z,25.83
2018-09-18T07:52:01.757Z,25.40
2018-09-18T07:54:31.119Z,26.10
2018-09-18T07:57:00.513Z,25.07
2018-09-18T07:59:29.879Z,24.90
2018-09-18T08:01:59.662Z,24.60
2018-09-18T08:04:29.048Z,23.64
2018-09-18T08:06:58.456Z,23.90
2018-09-18T08:09:27.816Z,24.15
2018-09-18T08:11:57.254Z,23.81
2018-09-18T08:14:26.651Z,23.42
2018-09-18T08:16:56.201Z,22.00
2018-09-18T08:19:25.772Z,21.14
2018-09-18T08:21:55.510Z,20.92
2018-09-18T08:24:25.100Z,21.24
2018-09-18T08:26:54.575Z,22.47
2018-09-18T08:29:24.008Z,23.27
2018-09-18T08:31:53.531Z,21.30
2018-09-18T08:34:23.074Z,21.91
2018-09-18T08:36:52.725Z,20.91
2018-09-18T08:39:22.214Z,21.53
2018-09-18T08:41:51.609Z,20.53
2018-09-18T08:44:21.065Z,21.29
2018-09-18T08:46:50.990Z,22.45
2018-09-18T08:49:20.471Z,23.09
2018-09-18T08:51:49.938Z,22.26
2018-09-18T08:54:19.439Z,21.56
2018-09-18T08:56:48.828Z,20.27
2018-09-18T08:59:18.258Z,19.20
2018-09-18T09:01:47.752Z,17.43
2018-09-18T09:04:17.170Z,18.31
2018-09-18T09:06:46.639Z,18.97
2018-09-18T09:09:17.077Z,18.97
2018-09-18T09:11:46.831Z,17.16
2018-09-18T09:14:16.331Z,19.34
2018-09-18T09:16:45.658Z,18.79
2018-09-18T09:19:15.071Z,18.06
2018-09-18T09:21:44.533Z,17.17
2018-09-18T09:24:14.926Z,16.93
2018-09-18T09:26:44.424Z,17.34
2018-09-18T09:29:13.974Z,17.79
2018-09-18T09:31:43.819Z,16.95
2018-09-18T09:34:13.252Z,16.44
2018-09-18T09:36:42.635Z,16.17
2018-09-18T09:39:12.956Z,15.67
2018-09-18T09:41:42.338Z,15.66
2018-09-18T09:44:11.868Z,15.75
2018-09-18T09:46:41.367Z,16.05
2018-09-18T09:49:10.853Z,16.48
2018-09-18T09:51:40.409Z,16.46
2018-09-18T09:54:10.203Z,14.52
2018-09-18T09:56:39.733Z,13.66
2018-09-18T09:59:09.540Z,14.77
2018-09-18T10:01:47.904Z,14.52
2018-09-18T10:04:17.707Z,15.17
2018-09-18T10:06:47.257Z,15.18
2018-09-18T10:09:17.069Z,15.09
2018-09-18T10:11:46.622Z,14.11
2018-09-18T10:14:16.180Z,14.74
2018-09-18T10:16:45.597Z,16.09
2018-09-18T10:19:15.037Z,16.15
2018-09-18T10:21:44.492Z,15.98
2018-09-18T10:24:13.988Z,16.09
2018-09-18T10:26:43.340Z,15.75
2018-09-18T10:29:12.834Z,16.40
2018-09-18T10:31:42.744Z,16.75
2018-09-18T10:34:12.144Z,17.12
2018-09-18T10:36:41.721Z,15.89
2018-09-18T10:39:12.119Z,15.72
2018-09-18T10:41:41.652Z,15.85
2018-09-18T10:44:11.112Z,15.44
2018-09-18T10:46:40.511Z,14.82
2018-09-18T10:49:09.918Z,14.23
2018-09-18T10:51:39.307Z,14.18
2018-09-18T10:54:08.820Z,13.36
2018-09-18T10:56:38.366Z,13.37
2018-09-18T10:59:10.644Z,14.23
2018-09-18T11:01:39.980Z,14.66
2018-09-18T11:04:09.744Z,15.34
2018-09-18T11:06:39.297Z,15.06
2018-09-18T11:09:10.877Z,14.36
2018-09-18T11:11:41.885Z,15.99
2018-09-18T11:14:12.625Z,15.00
2018-09-18T11:16:42.803Z,14.84
2018-09-18T11:19:12.425Z,14.56
2018-09-18T11:21:42.123Z,14.94
2018-09-18T11:24:11.669Z,15.24
2018-09-18T11:26:41.195Z,16.54
2018-09-18T11:29:10.640Z,16.66
2018-09-18T11:31:40.240Z,15.41
2018-09-18T11:34:09.635Z,16.30
2018-09-18T11:36:39.250Z,16.66
2018-09-18T11:39:08.707Z,17.11
2018-09-18T11:41:38.282Z,17.08
2018-09-18T11:44:07.756Z,16.28
2018-09-18T11:46:37.243Z,16.74
2018-09-18T11:49:06.657Z,16.46
2018-09-18T11:51:36.040Z,14.51
2018-09-18T11:54:05.938Z,13.79
2018-09-18T11:56:35.361Z,14.33
2018-09-18T11:59:04.956Z,13.93
2018-09-18T12:01:34.576Z,13.15
2018-09-18T12:04:04.101Z,13.48
2018-09-18T12:06:34.125Z,14.11
2018-09-18T12:09:03.582Z,14.22
2018-09-18T12:11:32.898Z,14.07
2018-09-18T12:14:02.347Z,14.46
2018-09-18T12:16:32.319Z,14.90
2018-09-18T12:19:01.816Z,14.96
2018-09-18T12:21:32.121Z,14.80
2018-09-18T12:24:01.530Z,13.44
2018-09-18T12:26:30.933Z,13.09
2018-09-18T12:29:00.339Z,12.74
2018-09-18T12:31:29.723Z,13.06
2018-09-18T12:33:59.142Z,14.74
2018-09-18T12:36:28.559Z,13.96
2018-09-18T12:38:58.139Z,12.88
2018-09-18T12:41:27.601Z,13.05
2018-09-18T12:43:57.019Z,13.79
2018-09-18T12:46:26.430Z,13.61
2018-09-18T12:48:55.997Z,12.77
2018-09-18T12:51:25.398Z,12.22
2018-09-18T12:53:54.974Z,12.81
2018-09-18T12:56:24.754Z,13.32
2018-09-18T12:58:54.634Z,13.46
2018-09-18T13:01:24.115Z,12.02
2018-09-18T13:03:53.674Z,12.92
2018-09-18T13:06:23.148Z,13.57
2018-09-18T13:08:52.602Z,13.78
2018-09-18T13:11:22.495Z,13.31
2018-09-18T13:13:52.119Z,12.97
2018-09-18T13:16:21.829Z,12.78
2018-09-18T13:18:51.390Z,12.86
2018-09-18T13:21:20.832Z,12.59
2018-09-18T13:23:50.597Z,13.30
2018-09-18T13:26:20.203Z,12.74
2018-09-18T13:28:49.648Z,13.88
2018-09-18T13:31:19.101Z,12.76
2018-09-18T13:33:48.555Z,12.38
2018-09-18T13:36:17.997Z,12.60
2018-09-18T13:38:47.471Z,13.32
2018-09-18T13:41:17.056Z,14.52
2018-09-18T13:43:46.383Z,14.02
2018-09-18T13:46:16.398Z,14.05
2018-09-18T13:48:45.740Z,12.86
2018-09-18T13:51:15.137Z,14.39
2018-09-18T13:53:44.658Z,13.99
2018-09-18T13:56:14.244Z,13.04
2018-09-18T13:58:43.691Z,13.70
2018-09-18T14:01:13.239Z,16.15
2018-09-18T14:03:42.531Z,15.73
2018-09-18T14:06:11.930Z,14.67
2018-09-18T14:08:42.025Z,14.02
2018-09-18T14:11:11.353Z,15.13
2018-09-18T14:13:40.822Z,15.78
2018-09-18T14:16:10.670Z,15.49
2018-09-18T14:18:40.208Z,15.85
2018-09-18T14:21:10.059Z,15.73
2018-09-18T14:23:39.531Z,16.39
2018-09-18T14:26:09.224Z,15.75
2018-09-18T14:28:38.752Z,16.03
2018-09-18T14:31:08.691Z,16.62
2018-09-18T14:33:38.093Z,17.07
2018-09-18T14:36:07.625Z,17.49
2018-09-18T14:38:37.110Z,17.19
2018-09-18T14:41:06.647Z,17.64
2018-09-18T14:43:36.175Z,18.25
2018-09-18T14:46:05.534Z,18.26
2018-09-18T14:48:35.008Z,18.31
2018-09-18T14:51:04.539Z,18.21
2018-09-18T14:53:34.666Z,17.74
2018-09-18T14:56:04.316Z,18.88
2018-09-18T14:58:33.796Z,19.06
2018-09-18T15:01:03.304Z,18.94
2018-09-18T15:03:32.721Z,20.12
2018-09-18T15:06:02.032Z,20.13
2018-09-18T15:08:31.445Z,19.86
2018-09-18T15:11:00.797Z,20.36
2018-09-18T15:13:30.199Z,19.67
2018-09-18T15:15:59.869Z,19.64
2018-09-18T15:18:29.352Z,19.36
2018-09-18T15:20:59.309Z,20.39
2018-09-18T15:23:28.832Z,20.23
2018-09-18T15:25:58.271Z,20.78
2018-09-18T15:28:27.697Z,21.38
2018-09-18T15:30:57.079Z,21.38
2018-09-18T15:33:26.486Z,21.93
2018-09-18T15:35:55.943Z,22.49
2018-09-18T15:38:26.034Z,22.17
2018-09-18T15:40:55.499Z,22.01
2018-09-18T15:43:24.900Z,22.38
2018-09-18T15:45:55.488Z,22.39
2018-09-18T15:48:25.038Z,22.76
2018-09-18T15:50:54.616Z,23.06
2018-09-18T15:53:24.169Z,24.08
2018-09-18T15:55:53.594Z,23.78
2018-09-18T15:58:23.169Z,24.24
2018-09-18T16:00:53.021Z,25.23
2018-09-18T16:03:22.453Z,25.42
2018-09-18T16:05:52.058Z,25.33
2018-09-18T16:08:21.884Z,25.74
2018-09-18T16:10:51.476Z,25.56
2018-09-18T16:13:20.899Z,26.52
2018-09-18T16:15:50.403Z,26.96
2018-09-18T16:18:19.863Z,27.14
2018-09-18T16:20:49.350Z,26.95
2018-09-18T16:23:19.145Z,26.73
2018-09-18T16:25:48.631Z,26.78
2018-09-18T16:28:18.257Z,27.54
2018-09-18T16:30:47.832Z,26.79
2018-09-18T16:33:17.402Z,27.91
2018-09-18T16:35:47.476Z,28.42
2018-09-18T16:38:16.904Z,27.93
2018-09-18T16:40:46.330Z,28.00
2018-09-18T16:43:15.755Z,28.81
2018-09-18T16:45:45.592Z,28.74
2018-09-18T16:48:15.027Z,29.24
2018-09-18T16:50:44.502Z,29.28
2018-09-18T16:53:14.760Z,28.15
2018-09-18T16:55:44.278Z,28.64
2018-09-18T16:58:13.835Z,28.58
2018-09-18T17:00:43.400Z,28.44
2018-09-18T17:03:12.812Z,29.59
2018-09-18T17:05:42.259Z,29.63
2018-09-18T17:08:12.351Z,30.05
2018-09-18T17:10:41.976Z,28.96
2018-09-18T17:13:12.173Z,30.26
2018-09-18T17:15:41.537Z,29.88
2018-09-18T17:18:11.044Z,29.86
2018-09-18T17:20:40.710Z,30.13
2018-09-18T17:23:10.160Z,31.28
2018-09-18T17:25:39.753Z,30.56
2018-09-18T17:28:09.212Z,30.91
2018-09-18T17:30:39.104Z,31.54
2018-09-18T17:33:09.429Z,32.23
2018-09-18T17:35:39.039Z,32.10
2018-09-18T17:38:08.387Z,31.78
2018-09-18T17:40:37.818Z,32.37
2018-09-18T17:43:07.483Z,31.77
2018-09-18T17:45:36.995Z,33.15
2018-09-18T17:48:06.843Z,32.75
2018-09-18T17:50:36.315Z,32.24
2018-09-18T17:53:06.510Z,32.53
2018-09-18T17:55:35.962Z,32.72
2018-09-18T17:58:05.449Z,32.73
2018-09-18T18:00:35.339Z,33.02
2018-09-18T18:03:04.848Z,33.41
2018-09-18T18:05:34.345Z,33.86
2018-09-18T18:08:03.782Z,33.57
2018-09-18T18:10:33.431Z,34.26
2018-09-18T18:13:03.524Z,33.00
2018-09-18T18:15:33.503Z,34.37
2018-09-18T18:18:02.914Z,35.77
2018-09-18T18:20:32.751Z,35.42
2018-09-18T18:23:02.127Z,35.74
2018-09-18T18:25:31.585Z,36.49
2018-09-18T18:28:01.020Z,37.22
2018-09-18T18:30:30.477Z,37.24
2018-09-18T18:32:59.947Z,36.84
2018-09-18T18:35:29.470Z,37.59
2018-09-18T18:37:59.195Z,37.92
2018-09-18T18:40:28.980Z,37.44
2018-09-18T18:42:58.412Z,37.78
2018-09-18T18:45:28.261Z,38.79
2018-09-18T18:47:57.783Z,38.32
2018-09-18T18:50:27.406Z,39.78
2018-09-18T18:52:57.014Z,39.29
2018-09-18T18:55:26.807Z,39.86
2018-09-18T18:57:56.454Z,40.60
2018-09-18T19:00:26.646Z,41.03
2018-09-18T19:02:56.500Z,40.71
2018-09-18T19:05:26.077Z,38.47
2018-09-18T19:07:56.179Z,38.42
2018-09-18T19:10:25.628Z,40.24
2018-09-18T19:12:55.032Z,41.80
2018-09-18T19:15:24.846Z,43.94
2018-09-18T19:17:54.281Z,44.67
2018-09-18T19:20:24.602Z,45.21
2018-09-18T19:22:55.234Z,46.08
2018-09-18T19:25:24.760Z,46.02
2018-09-18T19:27:55.288Z,46.24
2018-09-18T19:30:27.340Z,47.18
2018-09-18T19:32:59.457Z,47.94
2018-09-18T19:35:29.058Z,47.91
2018-09-18T19:37:58.585Z,48.30
2018-09-18T19:40:28.575Z,48.80
2018-09-18T19:42:59.426Z,49.58
2018-09-18T19:45:30.817Z,49.21
2018-09-18T19:48:00.353Z,50.00
2018-09-18T19:50:30.423Z,50.63
2018-09-18T19:53:00.411Z,51.21
2018-09-18T19:55:29.844Z,51.20
2018-09-18T19:57:59.929Z,51.56
2018-09-18T20:00:29.988Z,52.66
2018-09-18T20:02:59.866Z,51.87
2018-09-18T20:05:30.350Z,51.67
2018-09-18T20:07:59.786Z,51.56
2018-09-18T20:10:29.399Z,52.40
2018-09-18T20:12:58.911Z,51.91
2018-09-18T20:15:29.093Z,52.55
2018-09-18T20:18:03.221Z,52.86
2018-09-18T20:20:34.020Z,53.59
2018-09-18T20:23:03.673Z,53.86
2018-09-18T20:25:33.435Z,54.01
2018-09-18T20:28:02.930Z,53.55
2018-09-18T20:30:32.597Z,53.30
2018-09-18T20:33:02.235Z,54.04
2018-09-18T20:35:32.017Z,54.70
2018-09-18T20:38:01.677Z,54.53
2018-09-18T20:40:31.333Z,54.58
2018-09-18T20:43:02.356Z,54.42
2018-09-18T20:45:31.960Z,55.23
2018-09-18T20:48:01.715Z,54.50
2018-09-18T20:50:31.298Z,54.41
2018-09-18T20:53:00.715Z,54.81
2018-09-18T20:55:30.248Z,54.56
2018-09-18T20:57:59.932Z,55.43
2018-09-18T21:00:29.547Z,55.78
2018-09-18T21:02:59.317Z,55.04
2018-09-18T21:05:29.062Z,55.36
2018-09-18T21:07:58.966Z,55.78
2018-09-18T21:10:28.934Z,55.32
2018-09-18T21:12:58.474Z,55.97
2018-09-18T21:15:29.274Z,56.16
2018-09-18T21:17:58.899Z,56.06
2018-09-18T21:20:29.284Z,56.06
2018-09-18T21:22:58.933Z,56.56
2018-09-18T21:25:39.545Z,56.76
2018-09-18T21:28:09.177Z,56.86
2018-09-18T21:30:38.854Z,56.72
2018-09-18T21:33:08.437Z,57.14
2018-09-18T21:35:37.796Z,57.54
2018-09-18T21:38:07.415Z,57.02
2018-09-18T21:40:37.065Z,57.12
2018-09-18T21:43:06.773Z,57.71
2018-09-18T21:45:36.387Z,57.23
2018-09-18T21:48:05.890Z,56.62
2018-09-18T21:50:38.570Z,57.62
2018-09-18T21:53:12.037Z,57.88
2018-09-18T21:55:42.219Z,57.32
2018-09-18T21:58:11.643Z,57.24
2018-09-18T22:00:41.670Z,57.45
2018-09-18T22:03:11.430Z,58.02
2018-09-18T22:05:41.076Z,58.29
2018-09-18T22:08:10.540Z,58.82
2018-09-18T22:10:41.594Z,59.00
2018-09-18T22:13:11.110Z,57.96
2018-09-18T22:15:40.805Z,58.74
2018-09-18T22:18:10.280Z,58.51
2018-09-18T22:20:39.990Z,59.24
2018-09-18T22:23:10.292Z,58.59
2018-09-18T22:25:39.961Z,59.02
2018-09-18T22:28:09.701Z,58.53
2018-09-18T22:30:39.111Z,59.34
2018-09-18T22:33:08.538Z,60.00
2018-09-18T22:35:37.923Z,60.27
2018-09-18T22:38:07.734Z,60.03
2018-09-18T22:40:37.130Z,60.65
2018-09-18T22:43:06.773Z,60.66
2018-09-18T22:45:36.552Z,60.96
2018-09-18T22:48:06.091Z,61.21
2018-09-18T22:50:35.524Z,61.50
2018-09-18T22:53:04.933Z,62.26
2018-09-18T22:55:34.337Z,62.60
2018-09-18T22:58:03.735Z,62.53
2018-09-18T23:00:33.142Z,62.68
2018-09-18T23:03:02.744Z,62.83
2018-09-18T23:05:32.534Z,62.21
2018-09-18T23:08:02.166Z,62.31
2018-09-18T23:10:31.645Z,62.77
2018-09-18T23:13:01.066Z,62.73
2018-09-18T23:15:30.571Z,62.24
2018-09-18T23:18:00.133Z,63.70
2018-09-18T23:20:36.033Z,62.64
2018-09-18T23:23:05.415Z,63.22
2018-09-18T23:25:35.116Z,63.79
2018-09-18T23:28:04.894Z,63.94
2018-09-18T23:30:34.315Z,63.91
2018-09-18T23:33:03.842Z,63.71
2018-09-18T23:35:33.302Z,63.89
2018-09-18T23:38:03.191Z,63.33
2018-09-18T23:40:32.722Z,63.35
2018-09-18T23:43:02.108Z,64.00
2018-09-18T23:45:31.436Z,62.92
2018-09-18T23:48:00.861Z,63.41
2018-09-18T23:50:30.607Z,64.19
2018-09-18T23:53:00.012Z,65.24
2018-09-18T23:55:29.881Z,64.18
2018-09-18T23:57:59.347Z,64.47
